You are not logged in, Click here to log in
機場資訊:VVNB Welcome to Taiwan Airways 台灣虛擬航空
ICAO: VVNB Country: 越南首都河內
Latitude: 21.2187 Longitude: 105.804
Total Arrivals: 26 Total Departures: 26
Latest Arrival: VJ158 (VVTS-VVNB)CHU. CHUHAO Latest Departure: BL678 (VVNB-VHHH)CHU. CHUHAO
Scenery:
METAR : VVNB 141630Z 10004KT CAVOK 20/17 Q1018 NOSIG

內排國際機場 HAN

You are accessing this site from IP address 35.172.111.215. Virtual Airline. CMS by phpVMS.Website designed by Zumeweb and edited by Theo Bearman.
There is 0 User(s) Online: | and 1 Guest(s) Online.
All information on this site is for fight simulation purposes only. This site is for flight logging for pilots of Virtual Airline&模擬飛行論壇 FlySim only.